Altagrace — J8QI4 — position and weather

sailwx.info

Track history (hours):
 
Tides and Currents Weather Stations Pressure Air Temp Water Temp Dewpoint Dewpoint Depression Visibility Wind Speed Wind Dir Waves Ship Positions

Altagrace

Last reported at 2018-Jul-11 18:31 UTC. Time now 2018-Jul-17 15:19 UTC.
Position N 25°29' W 079°50'.

Length 82 m; draft 4.5 m.

Type: Cargo ship. MMSI: 377901040.

Date/timePositionNaut miles runAvg speedWind from/ knotsBaromVisibWave heightAir tempDewpointWater temp
2018-Jul-11 18:31N 25°29' W 079°50'0 6.7
2018-Jul-11 18:26N 25°30' W 079°50'3 6.8
2018-Jul-11 18:00N 25°32' W 079°51'3 6.8
2018-Jul-11 17:30N 25°36' W 079°53'3 6.8
2018-Jul-11 17:00N 25°39' W 079°54'3 6.9
2018-Jul-11 16:30N 25°42' W 079°56'4 7.2
2018-Jul-11 16:00N 25°44' W 079°58'4 7.7
2018-Jul-11 15:30N 25°47' W 080°02'4 8.9
2018-Jul-11 15:00N 25°46' W 080°06'4 8.0
2018-Jul-11 14:30N 25°46' W 080°11'1 2.4
2018-Jul-11 14:00N 25°46' W 080°12'1 2.9
2018-Jul-11 13:30N 25°47' W 080°13'1 2.2
2018-Jul-11 12:53N 25°48' W 080°15'0 0.0
2018-Jul-11 12:29N 25°48' W 080°15'0 0.0
2018-Jul-11 11:59N 25°48' W 080°15'0 0.0
2018-Jul-11 11:20N 25°48' W 080°15'0 0.0
2018-Jul-11 10:56N 25°48' W 080°15'0 0.0
2018-Jul-11 10:23N 25°48' W 080°15'0 0.0
2018-Jul-11 09:56N 25°48' W 080°15'0 0.0
2018-Jul-11 09:26N 25°48' W 080°15'0 0.0
2018-Jul-11 08:59N 25°48' W 080°15'0 0.0
2018-Jul-11 08:29N 25°48' W 080°15'0 0.0
2018-Jul-11 07:56N 25°48' W 080°15'0 0.0
2018-Jul-11 07:29N 25°48' W 080°15'0 0.0
2018-Jul-11 06:59N 25°48' W 080°15'0 0.0
2018-Jul-11 06:29N 25°48' W 080°15'0 0.0
2018-Jul-11 05:59N 25°48' W 080°15'0 0.0
2018-Jul-11 05:29N 25°48' W 080°15'0 0.0
2018-Jul-11 04:59N 25°48' W 080°15'0 0.0
2018-Jul-11 04:29N 25°48' W 080°15'0 0.0
2018-Jul-11 03:59N 25°48' W 080°15'0 0.0
2018-Jul-11 03:29N 25°48' W 080°15'0 0.0
2018-Jul-11 02:59N 25°48' W 080°15'0 0.0
2018-Jul-11 02:29N 25°48' W 080°15'0 0.0
2018-Jul-11 01:59N 25°48' W 080°15'0 0.0
2018-Jul-11 01:29N 25°48' W 080°15'0 0.0
2018-Jul-11 00:59N 25°48' W 080°15'0 0.0
2018-Jul-11 00:29N 25°48' W 080°15'0 0.0
2018-Jul-10 23:59N 25°48' W 080°15'0 0.0
2018-Jul-10 23:29N 25°48' W 080°15'0 0.0
2018-Jul-10 22:59N 25°48' W 080°15'0 0.0
2018-Jul-10 22:29N 25°48' W 080°15'0 0.0
2018-Jul-10 21:59N 25°48' W 080°15'0 0.0
2018-Jul-10 21:23N 25°48' W 080°15'0 0.0
2018-Jul-10 20:56N 25°48' W 080°15'0 0.0
2018-Jul-10 20:26N 25°48' W 080°15'0 0.0
2018-Jul-10 19:59N 25°48' W 080°15'0 0.0
2018-Jul-10 19:29N 25°48' W 080°15'0 0.0
2018-Jul-10 18:53N 25°48' W 080°15'0 0.0
2018-Jul-10 18:29N 25°48' W 080°15'0 0.0
2018-Jul-10 17:59N 25°48' W 080°15'0 0.0
2018-Jul-10 17:29N 25°48' W 080°15'0 0.0
2018-Jul-10 16:56N 25°48' W 080°15'0 0.0
2018-Jul-10 16:29N 25°48' W 080°15'0 0.0
2018-Jul-10 15:59N 25°48' W 080°15'0 0.0
2018-Jul-10 15:26N 25°48' W 080°15'0 0.0
2018-Jul-10 14:59N 25°48' W 080°15'0 0.0
2018-Jul-10 14:29N 25°48' W 080°15'0 0.0
2018-Jul-10 13:59N 25°48' W 080°15'0 0.0
2018-Jul-10 13:29N 25°48' W 080°15'0 0.0
2018-Jul-10 12:59N 25°48' W 080°15'0 0.0
2018-Jul-10 12:29N 25°48' W 080°15'0 0.0
2018-Jul-10 11:59N 25°48' W 080°15'0 0.0
2018-Jul-10 11:29N 25°48' W 080°15'0 0.0
2018-Jul-10 10:59N 25°48' W 080°15'0 0.0
2018-Jul-10 10:29N 25°48' W 080°15'0 0.0
2018-Jul-10 09:59N 25°48' W 080°15'0 0.0
2018-Jul-10 09:29N 25°48' W 080°15'0 0.0
2018-Jul-10 08:59N 25°48' W 080°15'0 0.0
2018-Jul-10 08:29N 25°48' W 080°15'0 0.0
2018-Jul-10 07:59N 25°48' W 080°15'0 0.0
2018-Jul-10 07:29N 25°48' W 080°15'0 0.0
2018-Jul-10 06:59N 25°48' W 080°15'0 0.0
2018-Jul-10 06:30N 25°48' W 080°15'0 0.0
2018-Jul-10 06:00N 25°48' W 080°15'0 0.0
2018-Jul-10 05:21N 25°48' W 080°15'0 0.0
2018-Jul-10 04:54N 25°48' W 080°15'0 0.0
2018-Jul-10 04:30N 25°48' W 080°15'0 0.0
2018-Jul-10 04:00N 25°48' W 080°15'0 0.0
2018-Jul-10 03:27N 25°48' W 080°15'0 0.0
2018-Jul-10 02:54N 25°48' W 080°15'0 0.0
2018-Jul-10 02:30N 25°48' W 080°15'0 0.0
2018-Jul-10 02:00N 25°48' W 080°15'0 0.0
2018-Jul-10 01:30N 25°48' W 080°15'0 0.0
2018-Jul-10 01:00N 25°48' W 080°15'0 0.0
2018-Jul-10 00:30N 25°48' W 080°15'0 0.0
2018-Jul-10 00:00N 25°48' W 080°15'0 0.0
2018-Jul-09 23:27N 25°48' W 080°15'0 0.0
2018-Jul-09 22:57N 25°48' W 080°15'0 0.0
2018-Jul-09 22:30N 25°48' W 080°15'0 0.0
2018-Jul-09 22:00N 25°48' W 080°15'0 0.0
2018-Jul-09 21:30N 25°48' W 080°15'0 0.0
2018-Jul-09 21:00N 25°48' W 080°15'0 0.0
2018-Jul-09 20:30N 25°48' W 080°15'0 0.0
2018-Jul-09 20:00N 25°48' W 080°15'0 0.0
2018-Jul-09 19:30N 25°48' W 080°15'0 0.0
2018-Jul-09 19:00N 25°48' W 080°15'0 0.0
2018-Jul-09 18:30N 25°48' W 080°15'0 0.0
2018-Jul-09 18:00N 25°48' W 080°15'0 0.0
2018-Jul-09 17:30N 25°48' W 080°15'0 0.0
2018-Jul-09 17:00N 25°48' W 080°15'0 0.0
2018-Jul-09 16:30N 25°48' W 080°15'0 0.0
2018-Jul-09 16:00N 25°48' W 080°15'0 0.0
2018-Jul-09 15:27N 25°48' W 080°15'0 0.0
2018-Jul-09 15:00N 25°48' W 080°15'0 0.0
2018-Jul-09 14:27N 25°48' W 080°15'0 0.0
2018-Jul-09 13:57N 25°48' W 080°15'0 0.0
2018-Jul-09 13:30N 25°48' W 080°15'0 0.0
2018-Jul-09 13:00N 25°48' W 080°15'0 0.0
2018-Jul-09 12:30N 25°48' W 080°15'0 0.0
2018-Jul-09 12:00N 25°48' W 080°15'0 0.0
2018-Jul-09 11:30N 25°48' W 080°15'0 0.0
2018-Jul-09 10:54N 25°48' W 080°15'0 0.1
2018-Jul-09 10:30N 25°48' W 080°15'0 0.0
2018-Jul-09 09:57N 25°48' W 080°15'0 0.0
2018-Jul-09 09:30N 25°48' W 080°15'0 0.0
2018-Jul-09 08:57N 25°48' W 080°15'0 0.0
2018-Jul-09 08:27N 25°48' W 080°15'0 0.0
2018-Jul-09 07:57N 25°48' W 080°15'0 0.0
2018-Jul-09 07:27N 25°48' W 080°15'0 0.0
2018-Jul-09 07:00N 25°48' W 080°15'0 0.0
2018-Jul-09 06:30N 25°48' W 080°15'0 0.0
2018-Jul-09 06:00N 25°48' W 080°15'0 0.0
2018-Jul-09 05:30N 25°48' W 080°15'0 0.0
2018-Jul-09 04:57N 25°48' W 080°15'0 0.0
2018-Jul-09 04:30N 25°48' W 080°15'0 0.0
2018-Jul-09 04:00N 25°48' W 080°15'0 0.0
2018-Jul-09 03:30N 25°48' W 080°15'0 0.0
2018-Jul-09 03:00N 25°48' W 080°15'0 0.0
2018-Jul-09 02:30N 25°48' W 080°15'0 0.0
2018-Jul-09 02:00N 25°48' W 080°15'0 0.0
2018-Jul-09 01:30N 25°48' W 080°15'0 0.0
2018-Jul-09 01:00N 25°48' W 080°15'0 0.0
2018-Jul-09 00:30N 25°48' W 080°15'0 0.0
2018-Jul-09 00:00N 25°48' W 080°15'0 0.0
2018-Jul-08 23:30N 25°48' W 080°15'0 0.0
2018-Jul-08 22:57N 25°48' W 080°15'0 0.0
2018-Jul-08 22:30N 25°48' W 080°15'0 0.0
2018-Jul-08 21:54N 25°48' W 080°15'0 0.0
2018-Jul-08 21:27N 25°48' W 080°15'0 0.0
2018-Jul-08 21:00N 25°48' W 080°15'0 0.0
2018-Jul-08 20:30N 25°48' W 080°15'0 0.0
2018-Jul-08 20:00N 25°48' W 080°15'0 0.0
2018-Jul-08 19:30N 25°48' W 080°15'0 0.0
2018-Jul-08 19:00N 25°48' W 080°15'0 0.0
2018-Jul-08 18:30N 25°48' W 080°15'0 0.0
2018-Jul-08 18:00N 25°48' W 080°15'0 0.0
2018-Jul-08 17:30N 25°48' W 080°15'0 0.0
2018-Jul-08 17:00N 25°48' W 080°15'0 0.0
2018-Jul-08 16:27N 25°48' W 080°15'0 0.0
2018-Jul-08 15:53N 25°48' W 080°15'0 0.0
2018-Jul-08 15:29N 25°48' W 080°15'0 0.0
2018-Jul-08 14:56N 25°48' W 080°15'0 0.0
2018-Jul-08 14:26N 25°48' W 080°15'0 0.0
2018-Jul-08 13:56N 25°48' W 080°15'0 0.0
2018-Jul-08 13:26N 25°48' W 080°15'0 0.0
2018-Jul-08 12:59N 25°48' W 080°15'0 0.0
2018-Jul-08 12:29N 25°48' W 080°15'0 0.0
2018-Jul-08 11:56N 25°48' W 080°15'0 0.0
2018-Jul-08 11:29N 25°48' W 080°15'0 0.0
2018-Jul-08 10:59N 25°48' W 080°15'0 0.0
2018-Jul-08 10:29N 25°48' W 080°15'0 0.0
2018-Jul-08 09:53N 25°48' W 080°15'0 0.0
2018-Jul-08 09:29N 25°48' W 080°15'0 0.0
2018-Jul-08 08:59N 25°48' W 080°15'0 0.0
2018-Jul-08 08:29N 25°48' W 080°15'0 0.0
2018-Jul-08 07:59N 25°48' W 080°15'0 0.0
2018-Jul-08 07:29N 25°48' W 080°15'0 0.0
2018-Jul-08 06:56N 25°48' W 080°15'0 0.0
2018-Jul-08 06:29N 25°48' W 080°15'0 0.0
2018-Jul-08 05:59N 25°48' W 080°15'0 0.0
2018-Jul-08 05:26N 25°48' W 080°15'0 0.0
2018-Jul-08 04:59N 25°48' W 080°15'0 0.0
2018-Jul-08 04:29N 25°48' W 080°15'0 0.0
2018-Jul-08 03:56N 25°48' W 080°15'0 0.0
2018-Jul-08 03:29N 25°48' W 080°15'0 0.0
2018-Jul-08 02:59N 25°48' W 080°15'0 0.0
2018-Jul-08 02:29N 25°48' W 080°15'0 0.0
2018-Jul-08 01:59N 25°48' W 080°15'0 0.0
2018-Jul-08 01:29N 25°48' W 080°15'0 0.0
2018-Jul-08 00:59N 25°48' W 080°15'0 0.0
2018-Jul-08 00:29N 25°48' W 080°15'0 0.0
2018-Jul-06 23:36N 25°48' W 080°15'0 0.0
2018-Jul-06 23:27N 25°48' W 080°15'0 0.0
2018-Jul-06 23:00N 25°48' W 080°15'0 0.0
2018-Jul-06 22:30N 25°48' W 080°15'0 0.0
2018-Jul-06 22:00N 25°48' W 080°15'0 0.0
2018-Jul-06 21:30N 25°48' W 080°15'0 0.0
2018-Jul-06 21:00N 25°48' W 080°15'0 0.0
2018-Jul-06 20:30N 25°48' W 080°15'0 0.0
2018-Jul-06 20:00N 25°48' W 080°15'0 0.0
2018-Jul-06 19:30N 25°48' W 080°15'0 0.0
2018-Jul-06 19:00N 25°48' W 080°15'0 0.0
2018-Jul-06 18:30N 25°48' W 080°15'0 0.0
2018-Jul-06 18:00N 25°48' W 080°15'0 0.0
2018-Jul-06 17:30N 25°48' W 080°15'0 0.0
2018-Jul-06 17:00N 25°48' W 080°15'0 0.0
2018-Jul-06 16:27N 25°48' W 080°15'0 0.0
2018-Jul-06 16:00N 25°48' W 080°15'0 0.0
2018-Jul-06 15:30N 25°48' W 080°15'0 0.0
2018-Jul-06 15:00N 25°48' W 080°15'0 0.0
2018-Jul-06 14:30N 25°48' W 080°15'0 0.0
2018-Jul-06 14:00N 25°48' W 080°15'0 0.0
2018-Jul-06 13:30N 25°48' W 080°15'0 0.0
2018-Jul-06 13:00N 25°48' W 080°15'0 0.0
2018-Jul-06 12:30N 25°48' W 080°15'0 0.0
2018-Jul-06 11:54N 25°48' W 080°15'0 0.0
2018-Jul-06 11:24N 25°48' W 080°15'0 0.0
2018-Jul-06 10:54N 25°48' W 080°15'0 0.0
2018-Jul-06 10:30N 25°48' W 080°15'0 0.0
2018-Jul-06 09:57N 25°48' W 080°15'0 0.0
2018-Jul-06 09:30N 25°48' W 080°15'0 0.0
2018-Jul-06 09:00N 25°48' W 080°15'0 0.0
2018-Jul-06 08:30N 25°48' W 080°15'0 0.0
2018-Jul-06 08:00N 25°48' W 080°15'0 0.0
2018-Jul-06 07:27N 25°48' W 080°15'0 0.0
2018-Jul-06 07:00N 25°48' W 080°15'0 0.0
2018-Jul-06 06:30N 25°48' W 080°15'0 0.0
2018-Jul-06 06:00N 25°48' W 080°15'0 0.0
2018-Jul-06 05:30N 25°48' W 080°15'0 0.0
2018-Jul-06 05:00N 25°48' W 080°15'0 0.0
2018-Jul-06 04:30N 25°48' W 080°15'0 0.0
2018-Jul-06 03:57N 25°48' W 080°15'0 0.0
2018-Jul-06 03:30N 25°48' W 080°15'0 0.0
2018-Jul-06 03:00N 25°48' W 080°15'0 0.0
2018-Jul-06 02:30N 25°48' W 080°15'0 0.0
2018-Jul-06 02:00N 25°48' W 080°15'0 0.0
2018-Jul-06 01:30N 25°48' W 080°15'0 0.0
2018-Jul-06 01:00N 25°48' W 080°15'0 0.0
2018-Jul-06 00:30N 25°48' W 080°15'0 0.0
2018-Jul-06 00:00N 25°48' W 080°15'0 0.0
2018-Jul-05 23:30N 25°48' W 080°15'0 0.0
2018-Jul-05 23:00N 25°48' W 080°15'0 0.0
2018-Jul-05 22:27N 25°48' W 080°15'0 0.0
2018-Jul-05 22:00N 25°48' W 080°15'0 0.0
2018-Jul-05 21:27N 25°48' W 080°15'0 0.0
2018-Jul-05 20:54N 25°48' W 080°15'0 0.0
2018-Jul-05 20:30N 25°48' W 080°15'0 0.0
2018-Jul-05 20:00N 25°48' W 080°15'0 0.0
2018-Jul-05 19:27N 25°48' W 080°15'0 0.0
2018-Jul-05 19:00N 25°48' W 080°15'0 0.0
2018-Jul-05 18:30N 25°48' W 080°15'0 0.0
2018-Jul-05 17:57N 25°48' W 080°15'0 0.0
2018-Jul-05 17:30N 25°48' W 080°15'0 0.0
2018-Jul-05 17:00N 25°48' W 080°15'0 0.0
2018-Jul-05 16:30N 25°48' W 080°15'0 0.0
2018-Jul-05 16:00N 25°48' W 080°15'0 0.0
2018-Jul-05 15:30N 25°48' W 080°15'0 0.0
2018-Jul-05 15:00N 25°48' W 080°15'0 0.0
2018-Jul-05 14:30N 25°48' W 080°15'0 0.0
2018-Jul-05 13:30N 25°48' W 080°15'0 0.0
2018-Jul-05 13:00N 25°48' W 080°15'0 0.0
2018-Jul-05 12:30N 25°48' W 080°15'0 0.0
2018-Jul-05 12:00N 25°48' W 080°15'0 0.0
2018-Jul-05 11:30N 25°48' W 080°15'0 0.0
2018-Jul-05 11:00N 25°48' W 080°15'0 0.0
2018-Jul-05 10:21N 25°48' W 080°15'0 0.0
2018-Jul-05 10:00N 25°48' W 080°15'0 0.0
2018-Jul-05 09:27N 25°48' W 080°15'0 0.0
2018-Jul-05 09:00N 25°48' W 080°15'0 0.0
2018-Jul-05 08:27N 25°48' W 080°15'0 0.0
2018-Jul-05 07:54N 25°48' W 080°15'0 0.0
2018-Jul-05 07:30N 25°48' W 080°15'0 0.0
2018-Jul-05 06:51N 25°48' W 080°15'0 0.0
2018-Jul-05 06:24N 25°48' W 080°15'0 0.0
2018-Jul-05 05:54N 25°48' W 080°15'0 0.0
2018-Jul-05 05:30N 25°48' W 080°15'0 0.0
2018-Jul-05 04:54N 25°48' W 080°15'0 0.0
2018-Jul-05 04:30N 25°48' W 080°15'0 0.0
2018-Jul-05 03:57N 25°48' W 080°15'0 0.0
2018-Jul-05 03:27N 25°48' W 080°15'0 0.0
2018-Jul-05 02:57N 25°48' W 080°15'0 0.0
2018-Jul-05 02:30N 25°48' W 080°15'0 0.0
2018-Jul-05 02:00N 25°48' W 080°15'0 0.0
2018-Jul-05 01:30N 25°48' W 080°15'0 0.0
2018-Jul-05 01:00N 25°48' W 080°15'0 0.0
2018-Jul-05 00:30N 25°48' W 080°15'0 0.0
2018-Jul-05 00:00N 25°48' W 080°15'0 0.0
2018-Jul-04 23:30N 25°48' W 080°15'0 0.0
2018-Jul-04 23:00N 25°48' W 080°15'0 0.0
2018-Jul-04 22:30N 25°48' W 080°15'0 0.0
2018-Jul-04 22:00N 25°48' W 080°15'0 0.0
2018-Jul-04 21:30N 25°48' W 080°15'0 0.0
2018-Jul-04 21:00N 25°48' W 080°15'0 0.0
2018-Jul-04 20:30N 25°48' W 080°15'0 0.0
2018-Jul-04 20:00N 25°48' W 080°15'0 0.0
2018-Jul-04 19:30N 25°48' W 080°15'0 0.0
2018-Jul-04 19:00N 25°48' W 080°15'0 0.0
2018-Jul-04 18:27N 25°48' W 080°15'0 0.0
2018-Jul-04 17:54N 25°48' W 080°15'0 0.0
2018-Jul-04 17:24N 25°48' W 080°15'0 0.0
2018-Jul-04 16:57N 25°48' W 080°15'0 0.0
2018-Jul-04 16:24N 25°48' W 080°15'0 0.0
2018-Jul-04 15:54N 25°48' W 080°15'0 0.0
2018-Jul-04 15:30N 25°48' W 080°15'0 0.0
2018-Jul-04 15:00N 25°48' W 080°15'0 0.0
2018-Jul-04 14:30N 25°48' W 080°15'0 0.0
2018-Jul-04 13:57N 25°48' W 080°15'0 0.0
2018-Jul-04 13:30N 25°48' W 080°15'0 0.0
2018-Jul-04 13:00N 25°48' W 080°15'0 0.0
2018-Jul-04 12:27N 25°48' W 080°15'0 0.0
2018-Jul-04 11:57N 25°48' W 080°15'0 0.0
2018-Jul-04 11:30N 25°48' W 080°15'0 0.0
2018-Jul-04 10:57N 25°48' W 080°15'0 0.0
2018-Jul-04 10:30N 25°48' W 080°15'0 0.0
2018-Jul-04 10:00N 25°48' W 080°15'0 0.0
2018-Jul-04 09:29N 25°48' W 080°15'0 0.0
2018-Jul-04 09:00N 25°48' W 080°15'0 0.0
2018-Jul-04 08:30N 25°48' W 080°15'0 0.0
2018-Jul-04 07:59N 25°48' W 080°15'0 0.0
2018-Jul-04 07:30N 25°48' W 080°15'0 0.0
2018-Jul-04 06:59N 25°48' W 080°15'0 0.0
2018-Jul-04 06:29N 25°48' W 080°15'0 0.0
2018-Jul-04 06:00N 25°48' W 080°15'0 0.0
2018-Jul-04 05:29N 25°48' W 080°15'0 0.0
2018-Jul-04 05:00N 25°48' W 080°15'0 0.0
2018-Jul-04 04:29N 25°48' W 080°15'0 0.0
2018-Jul-04 03:56N 25°48' W 080°15'0 0.0
2018-Jul-04 03:26N 25°48' W 080°15'0 0.0
2018-Jul-04 03:00N 25°48' W 080°15'0 0.0
2018-Jul-04 02:29N 25°48' W 080°15'0 0.0
2018-Jul-04 01:56N 25°48' W 080°15'0 0.0
2018-Jul-04 01:29N 25°48' W 080°15'0 0.0
2018-Jul-04 00:56N 25°48' W 080°15'0 0.0
2018-Jul-04 00:26N 25°48' W 080°15'0 0.0
2018-Jul-04 00:00N 25°48' W 080°15'0 0.0
2018-Jul-03 23:30N 25°48' W 080°15'0 0.0
2018-Jul-03 22:59N 25°48' W 080°15'0 0.0
2018-Jul-03 22:26N 25°48' W 080°15'0 0.0
2018-Jul-03 21:59N 25°48' W 080°15'0 0.0
2018-Jul-03 21:30N 25°48' W 080°15'0 0.0
2018-Jul-03 21:00N 25°48' W 080°15'0 0.0
2018-Jul-03 20:29N 25°48' W 080°15'0 0.0
2018-Jul-03 19:59N 25°48' W 080°15'0 0.0
2018-Jul-03 19:29N 25°48' W 080°15'0 0.0
2018-Jul-03 19:00N 25°48' W 080°15'0 0.0
2018-Jul-03 18:29N 25°48' W 080°15'0 0.0
2018-Jul-03 18:00N 25°48' W 080°15'0 0.0
2018-Jul-03 17:29N 25°48' W 080°15'0 0.0
2018-Jul-03 16:59N 25°48' W 080°15'0 0.0
2018-Jul-03 16:29N 25°48' W 080°15'0 0.0
2018-Jul-03 16:00N 25°48' W 080°15'0 0.0
2018-Jul-03 15:29N 25°48' W 080°15'0 0.0
2018-Jul-03 14:59N 25°48' W 080°15'0 0.0
2018-Jul-03 14:29N 25°48' W 080°15'0 0.0
2018-Jul-03 13:59N 25°48' W 080°15'0 0.0
2018-Jul-03 13:29N 25°48' W 080°15'0 0.0
2018-Jul-03 12:59N 25°48' W 080°15'0 0.0
2018-Jul-03 12:29N 25°48' W 080°15'0 0.0
2018-Jul-03 11:59N 25°48' W 080°15'0 0.0
2018-Jul-03 11:29N 25°48' W 080°15'0 0.0
2018-Jul-03 10:53N 25°48' W 080°15'0 0.0
2018-Jul-03 10:23N 25°48' W 080°15'0 0.0
2018-Jul-03 09:59N 25°48' W 080°15'0 0.0
2018-Jul-03 09:26N 25°48' W 080°15'0 0.0
2018-Jul-03 08:59N 25°48' W 080°15'0 0.0
2018-Jul-03 08:29N 25°48' W 080°15'0 0.0
2018-Jul-03 07:59N 25°48' W 080°15'0 0.0
2018-Jul-03 07:29N 25°48' W 080°15'0 0.0
2018-Jul-03 06:56N 25°48' W 080°15'0 0.0
2018-Jul-03 06:26N 25°48' W 080°15'0 0.0
2018-Jul-03 05:56N 25°48' W 080°15'0 0.0
2018-Jul-03 05:26N 25°48' W 080°15'0 0.0
2018-Jul-03 04:59N 25°48' W 080°15'0 0.0
2018-Jul-03 04:29N 25°48' W 080°15'0 0.0
2018-Jul-03 03:59N 25°48' W 080°15'0 0.0
2018-Jul-03 03:29N 25°48' W 080°15'0 0.0
2018-Jul-03 02:59N 25°48' W 080°15'0 0.0
2018-Jul-03 02:29N 25°48' W 080°15'0 0.0
2018-Jul-03 01:59N 25°48' W 080°15'0 0.0
2018-Jul-03 01:29N 25°48' W 080°15'0 0.0
2018-Jul-03 00:59N 25°48' W 080°15'0 0.0
2018-Jul-03 00:29N 25°48' W 080°15'0 0.0
2018-Jul-02 23:59N 25°48' W 080°15'0 0.0
2018-Jul-02 23:29N 25°48' W 080°15'0 0.0
2018-Jul-02 22:50N 25°48' W 080°15'0 0.0
2018-Jul-02 22:26N 25°48' W 080°15'0 0.0
2018-Jul-02 21:59N 25°48' W 080°15'0 0.0
2018-Jul-02 21:23N 25°48' W 080°15'0 0.0
2018-Jul-02 20:53N 25°48' W 080°15'0 0.0
2018-Jul-02 20:26N 25°48' W 080°15'0 0.0
2018-Jul-02 19:53N 25°48' W 080°15'0 0.0
2018-Jul-02 19:23N 25°48' W 080°15'0 0.0
2018-Jul-02 18:59N 25°48' W 080°15'0 0.0
2018-Jul-02 18:23N 25°48' W 080°15'0 0.0
2018-Jul-02 17:59N 25°48' W 080°15'0 0.0
2018-Jul-02 17:23N 25°48' W 080°15'0 0.0
2018-Jul-02 16:59N 25°48' W 080°15'0 0.0
2018-Jul-02 16:23N 25°48' W 080°15'0 0.0
2018-Jul-02 15:56N 25°48' W 080°15'0 0.0
2018-Jul-02 15:29N 25°48' W 080°15'0 0.0
2018-Jul-02 14:56N 25°48' W 080°15'0 0.0
2018-Jul-02 14:29N 25°48' W 080°15'0 0.0
2018-Jul-02 13:59N 25°48' W 080°15'0 0.0
2018-Jul-02 13:26N 25°48' W 080°15'0 0.0
2018-Jul-02 12:59N 25°48' W 080°15'0 0.0
2018-Jul-02 12:29N 25°48' W 080°15'0 0.0
2018-Jul-02 11:56N 25°48' W 080°15'0 0.0
2018-Jul-02 11:29N 25°48' W 080°15'0 0.0
2018-Jul-02 10:59N 25°48' W 080°15'0 0.0
2018-Jul-02 10:29N 25°48' W 080°15'0 0.0
2018-Jul-02 09:56N 25°48' W 080°15'0 0.0
2018-Jul-02 09:29N 25°48' W 080°15'0 0.0
2018-Jul-02 08:59N 25°48' W 080°15'0 0.0
2018-Jul-02 08:29N 25°48' W 080°15'0 0.0
2018-Jul-02 07:59N 25°48' W 080°15'0 0.0
2018-Jul-02 07:26N 25°48' W 080°15'0 0.0
2018-Jul-02 06:59N 25°48' W 080°15'0 0.0
2018-Jul-02 06:29N 25°48' W 080°15'0 0.0
2018-Jul-02 05:56N 25°48' W 080°15'0 0.0
2018-Jul-02 05:20N 25°48' W 080°15'0 0.0
2018-Jul-02 04:59N 25°48' W 080°15'0 0.0
2018-Jul-02 04:29N 25°48' W 080°15'0 0.0
2018-Jul-02 03:56N 25°48' W 080°15'0 0.0
2018-Jul-02 03:23N 25°48' W 080°15'0 0.0
2018-Jul-02 02:59N 25°48' W 080°15'0 0.0
2018-Jul-02 02:29N 25°48' W 080°15'0 0.0
2018-Jul-02 01:59N 25°48' W 080°15'0 0.0
2018-Jul-02 01:29N 25°48' W 080°15'0 0.0
2018-Jul-02 00:56N 25°48' W 080°15'0 0.0
2018-Jul-02 00:29N 25°48' W 080°15'0 0.0
2018-Jul-01 23:59N 25°48' W 080°15'0 0.0
2018-Jul-01 23:29N 25°48' W 080°15'0 0.0
2018-Jul-01 22:59N 25°48' W 080°15'0 0.0
2018-Jul-01 22:26N 25°48' W 080°15'0 0.0
2018-Jul-01 21:59N 25°48' W 080°15'0 0.0
2018-Jul-01 21:29N 25°48' W 080°15'0 0.0
2018-Jul-01 20:59N 25°48' W 080°15'0 0.0
2018-Jul-01 20:29N 25°48' W 080°15'0 0.0
2018-Jul-01 19:59N 25°48' W 080°15'0 0.0
2018-Jul-01 19:29N 25°48' W 080°15'0 0.0
2018-Jul-01 18:59N 25°48' W 080°15'  
Track history (hours):
 
Tides and Currents Weather Stations Pressure Air Temp Water Temp Dewpoint Dewpoint Depression Visibility Wind Speed Wind Dir Waves Ship Positions

Altagrace

Last reported at 2018-Jul-11 18:31 UTC. Time now 2018-Jul-17 15:19 UTC.
Position N 25°29' W 079°50'.

Length 82 m; draft 4.5 m.

Type: Cargo ship. MMSI: 377901040.

Date/timePositionNaut miles runAvg speedWind from/ knotsBaromVisibWave heightAir tempDewpointWater temp
2018-Jul-11 18:31N 25°29' W 079°50'0 6.7
2018-Jul-11 18:26N 25°30' W 079°50'3 6.8
2018-Jul-11 18:00N 25°32' W 079°51'3 6.8
2018-Jul-11 17:30N 25°36' W 079°53'3 6.8
2018-Jul-11 17:00N 25°39' W 079°54'3 6.9
2018-Jul-11 16:30N 25°42' W 079°56'4 7.2
2018-Jul-11 16:00N 25°44' W 079°58'4 7.7
2018-Jul-11 15:30N 25°47' W 080°02'4 8.9
2018-Jul-11 15:00N 25°46' W 080°06'4 8.0
2018-Jul-11 14:30N 25°46' W 080°11'1 2.4
2018-Jul-11 14:00N 25°46' W 080°12'1 2.9
2018-Jul-11 13:30N 25°47' W 080°13'1 2.2
2018-Jul-11 12:53N 25°48' W 080°15'0 0.0
2018-Jul-11 12:29N 25°48' W 080°15'0 0.0
2018-Jul-11 11:59N 25°48' W 080°15'0 0.0
2018-Jul-11 11:20N 25°48' W 080°15'0 0.0
2018-Jul-11 10:56N 25°48' W 080°15'0 0.0
2018-Jul-11 10:23N 25°48' W 080°15'0 0.0
2018-Jul-11 09:56N 25°48' W 080°15'0 0.0
2018-Jul-11 09:26N 25°48' W 080°15'0 0.0
2018-Jul-11 08:59N 25°48' W 080°15'0 0.0
2018-Jul-11 08:29N 25°48' W 080°15'0 0.0
2018-Jul-11 07:56N 25°48' W 080°15'0 0.0
2018-Jul-11 07:29N 25°48' W 080°15'0 0.0
2018-Jul-11 06:59N 25°48' W 080°15'0 0.0
2018-Jul-11 06:29N 25°48' W 080°15'0 0.0
2018-Jul-11 05:59N 25°48' W 080°15'0 0.0
2018-Jul-11 05:29N 25°48' W 080°15'0 0.0
2018-Jul-11 04:59N 25°48' W 080°15'0 0.0
2018-Jul-11 04:29N 25°48' W 080°15'0 0.0
2018-Jul-11 03:59N 25°48' W 080°15'0 0.0
2018-Jul-11 03:29N 25°48' W 080°15'0 0.0
2018-Jul-11 02:59N 25°48' W 080°15'0 0.0
2018-Jul-11 02:29N 25°48' W 080°15'0 0.0
2018-Jul-11 01:59N 25°48' W 080°15'0 0.0
2018-Jul-11 01:29N 25°48' W 080°15'0 0.0
2018-Jul-11 00:59N 25°48' W 080°15'0 0.0
2018-Jul-11 00:29N 25°48' W 080°15'0 0.0
2018-Jul-10 23:59N 25°48' W 080°15'0 0.0
2018-Jul-10 23:29N 25°48' W 080°15'0 0.0
2018-Jul-10 22:59N 25°48' W 080°15'0 0.0
2018-Jul-10 22:29N 25°48' W 080°15'0 0.0
2018-Jul-10 21:59N 25°48' W 080°15'0 0.0
2018-Jul-10 21:23N 25°48' W 080°15'0 0.0
2018-Jul-10 20:56N 25°48' W 080°15'0 0.0
2018-Jul-10 20:26N 25°48' W 080°15'0 0.0
2018-Jul-10 19:59N 25°48' W 080°15'0 0.0
2018-Jul-10 19:29N 25°48' W 080°15'0 0.0
2018-Jul-10 18:53N 25°48' W 080°15'0 0.0
2018-Jul-10 18:29N 25°48' W 080°15'0 0.0
2018-Jul-10 17:59N 25°48' W 080°15'0 0.0
2018-Jul-10 17:29N 25°48' W 080°15'0 0.0
2018-Jul-10 16:56N 25°48' W 080°15'0 0.0
2018-Jul-10 16:29N 25°48' W 080°15'0 0.0
2018-Jul-10 15:59N 25°48' W 080°15'0 0.0
2018-Jul-10 15:26N 25°48' W 080°15'0 0.0
2018-Jul-10 14:59N 25°48' W 080°15'0 0.0
2018-Jul-10 14:29N 25°48' W 080°15'0 0.0
2018-Jul-10 13:59N 25°48' W 080°15'0 0.0
2018-Jul-10 13:29N 25°48' W 080°15'0 0.0
2018-Jul-10 12:59N 25°48' W 080°15'0 0.0
2018-Jul-10 12:29N 25°48' W 080°15'0 0.0
2018-Jul-10 11:59N 25°48' W 080°15'0 0.0
2018-Jul-10 11:29N 25°48' W 080°15'0 0.0
2018-Jul-10 10:59N 25°48' W 080°15'0 0.0
2018-Jul-10 10:29N 25°48' W 080°15'0 0.0
2018-Jul-10 09:59N 25°48' W 080°15'0 0.0
2018-Jul-10 09:29N 25°48' W 080°15'0 0.0
2018-Jul-10 08:59N 25°48' W 080°15'0 0.0
2018-Jul-10 08:29N 25°48' W 080°15'0 0.0
2018-Jul-10 07:59N 25°48' W 080°15'0 0.0
2018-Jul-10 07:29N 25°48' W 080°15'0 0.0
2018-Jul-10 06:59N 25°48' W 080°15'0 0.0
2018-Jul-10 06:30N 25°48' W 080°15'0 0.0
2018-Jul-10 06:00N 25°48' W 080°15'0 0.0
2018-Jul-10 05:21N 25°48' W 080°15'0 0.0
2018-Jul-10 04:54N 25°48' W 080°15'0 0.0
2018-Jul-10 04:30N 25°48' W 080°15'0 0.0
2018-Jul-10 04:00N 25°48' W 080°15'0 0.0
2018-Jul-10 03:27N 25°48' W 080°15'0 0.0
2018-Jul-10 02:54N 25°48' W 080°15'0 0.0
2018-Jul-10 02:30N 25°48' W 080°15'0 0.0
2018-Jul-10 02:00N 25°48' W 080°15'0 0.0
2018-Jul-10 01:30N 25°48' W 080°15'0 0.0
2018-Jul-10 01:00N 25°48' W 080°15'0 0.0
2018-Jul-10 00:30N 25°48' W 080°15'0 0.0
2018-Jul-10 00:00N 25°48' W 080°15'0 0.0
2018-Jul-09 23:27N 25°48' W 080°15'0 0.0
2018-Jul-09 22:57N 25°48' W 080°15'0 0.0
2018-Jul-09 22:30N 25°48' W 080°15'0 0.0
2018-Jul-09 22:00N 25°48' W 080°15'0 0.0
2018-Jul-09 21:30N 25°48' W 080°15'0 0.0
2018-Jul-09 21:00N 25°48' W 080°15'0 0.0
2018-Jul-09 20:30N 25°48' W 080°15'0 0.0
2018-Jul-09 20:00N 25°48' W 080°15'0 0.0
2018-Jul-09 19:30N 25°48' W 080°15'0 0.0
2018-Jul-09 19:00N 25°48' W 080°15'0 0.0
2018-Jul-09 18:30N 25°48' W 080°15'0 0.0
2018-Jul-09 18:00N 25°48' W 080°15'0 0.0
2018-Jul-09 17:30N 25°48' W 080°15'0 0.0
2018-Jul-09 17:00N 25°48' W 080°15'0 0.0
2018-Jul-09 16:30N 25°48' W 080°15'0 0.0
2018-Jul-09 16:00N 25°48' W 080°15'0 0.0
2018-Jul-09 15:27N 25°48' W 080°15'0 0.0
2018-Jul-09 15:00N 25°48' W 080°15'0 0.0
2018-Jul-09 14:27N 25°48' W 080°15'0 0.0
2018-Jul-09 13:57N 25°48' W 080°15'0 0.0
2018-Jul-09 13:30N 25°48' W 080°15'0 0.0
2018-Jul-09 13:00N 25°48' W 080°15'0 0.0
2018-Jul-09 12:30N 25°48' W 080°15'0 0.0
2018-Jul-09 12:00N 25°48' W 080°15'0 0.0
2018-Jul-09 11:30N 25°48' W 080°15'0 0.0
2018-Jul-09 10:54N 25°48' W 080°15'0 0.1
2018-Jul-09 10:30N 25°48' W 080°15'0 0.0
2018-Jul-09 09:57N 25°48' W 080°15'0 0.0
2018-Jul-09 09:30N 25°48' W 080°15'0 0.0
2018-Jul-09 08:57N 25°48' W 080°15'0 0.0
2018-Jul-09 08:27N 25°48' W 080°15'0 0.0
2018-Jul-09 07:57N 25°48' W 080°15'0 0.0
2018-Jul-09 07:27N 25°48' W 080°15'0 0.0
2018-Jul-09 07:00N 25°48' W 080°15'0 0.0
2018-Jul-09 06:30N 25°48' W 080°15'0 0.0
2018-Jul-09 06:00N 25°48' W 080°15'0 0.0
2018-Jul-09 05:30N 25°48' W 080°15'0 0.0
2018-Jul-09 04:57N 25°48' W 080°15'0 0.0
2018-Jul-09 04:30N 25°48' W 080°15'0 0.0
2018-Jul-09 04:00N 25°48' W 080°15'0 0.0
2018-Jul-09 03:30N 25°48' W 080°15'0 0.0
2018-Jul-09 03:00N 25°48' W 080°15'0 0.0
2018-Jul-09 02:30N 25°48' W 080°15'0 0.0
2018-Jul-09 02:00N 25°48' W 080°15'0 0.0
2018-Jul-09 01:30N 25°48' W 080°15'0 0.0
2018-Jul-09 01:00N 25°48' W 080°15'0 0.0
2018-Jul-09 00:30N 25°48' W 080°15'0 0.0
2018-Jul-09 00:00N 25°48' W 080°15'0 0.0
2018-Jul-08 23:30N 25°48' W 080°15'0 0.0
2018-Jul-08 22:57N 25°48' W 080°15'0 0.0
2018-Jul-08 22:30N 25°48' W 080°15'0 0.0
2018-Jul-08 21:54N 25°48' W 080°15'0 0.0
2018-Jul-08 21:27N 25°48' W 080°15'0 0.0
2018-Jul-08 21:00N 25°48' W 080°15'0 0.0
2018-Jul-08 20:30N 25°48' W 080°15'0 0.0
2018-Jul-08 20:00N 25°48' W 080°15'0 0.0
2018-Jul-08 19:30N 25°48' W 080°15'0 0.0
2018-Jul-08 19:00N 25°48' W 080°15'0 0.0
2018-Jul-08 18:30N 25°48' W 080°15'0 0.0
2018-Jul-08 18:00N 25°48' W 080°15'0 0.0
2018-Jul-08 17:30N 25°48' W 080°15'0 0.0
2018-Jul-08 17:00N 25°48' W 080°15'0 0.0
2018-Jul-08 16:27N 25°48' W 080°15'0 0.0
2018-Jul-08 15:53N 25°48' W 080°15'0 0.0
2018-Jul-08 15:29N 25°48' W 080°15'0 0.0
2018-Jul-08 14:56N 25°48' W 080°15'0 0.0
2018-Jul-08 14:26N 25°48' W 080°15'0 0.0
2018-Jul-08 13:56N 25°48' W 080°15'0 0.0
2018-Jul-08 13:26N 25°48' W 080°15'0 0.0
2018-Jul-08 12:59N 25°48' W 080°15'0 0.0
2018-Jul-08 12:29N 25°48' W 080°15'0 0.0
2018-Jul-08 11:56N 25°48' W 080°15'0 0.0
2018-Jul-08 11:29N 25°48' W 080°15'0 0.0
2018-Jul-08 10:59N 25°48' W 080°15'0 0.0
2018-Jul-08 10:29N 25°48' W 080°15'0 0.0
2018-Jul-08 09:53N 25°48' W 080°15'0 0.0
2018-Jul-08 09:29N 25°48' W 080°15'0 0.0
2018-Jul-08 08:59N 25°48' W 080°15'0 0.0
2018-Jul-08 08:29N 25°48' W 080°15'0 0.0
2018-Jul-08 07:59N 25°48' W 080°15'0 0.0
2018-Jul-08 07:29N 25°48' W 080°15'0 0.0
2018-Jul-08 06:56N 25°48' W 080°15'0 0.0
2018-Jul-08 06:29N 25°48' W 080°15'0 0.0
2018-Jul-08 05:59N 25°48' W 080°15'0 0.0
2018-Jul-08 05:26N 25°48' W 080°15'0 0.0
2018-Jul-08 04:59N 25°48' W 080°15'0 0.0
2018-Jul-08 04:29N 25°48' W 080°15'0 0.0
2018-Jul-08 03:56N 25°48' W 080°15'0 0.0
2018-Jul-08 03:29N 25°48' W 080°15'0 0.0
2018-Jul-08 02:59N 25°48' W 080°15'0 0.0
2018-Jul-08 02:29N 25°48' W 080°15'0 0.0
2018-Jul-08 01:59N 25°48' W 080°15'0 0.0
2018-Jul-08 01:29N 25°48' W 080°15'0 0.0
2018-Jul-08 00:59N 25°48' W 080°15'0 0.0
2018-Jul-08 00:29N 25°48' W 080°15'0 0.0
2018-Jul-06 23:36N 25°48' W 080°15'0 0.0
2018-Jul-06 23:27N 25°48' W 080°15'0 0.0
2018-Jul-06 23:00N 25°48' W 080°15'0 0.0
2018-Jul-06 22:30N 25°48' W 080°15'0 0.0
2018-Jul-06 22:00N 25°48' W 080°15'0 0.0
2018-Jul-06 21:30N 25°48' W 080°15'0 0.0
2018-Jul-06 21:00N 25°48' W 080°15'0 0.0
2018-Jul-06 20:30N 25°48' W 080°15'0 0.0
2018-Jul-06 20:00N 25°48' W 080°15'0 0.0
2018-Jul-06 19:30N 25°48' W 080°15'0 0.0
2018-Jul-06 19:00N 25°48' W 080°15'0 0.0
2018-Jul-06 18:30N 25°48' W 080°15'0 0.0
2018-Jul-06 18:00N 25°48' W 080°15'0 0.0
2018-Jul-06 17:30N 25°48' W 080°15'0 0.0
2018-Jul-06 17:00N 25°48' W 080°15'0 0.0
2018-Jul-06 16:27N 25°48' W 080°15'0 0.0
2018-Jul-06 16:00N 25°48' W 080°15'0 0.0
2018-Jul-06 15:30N 25°48' W 080°15'0 0.0
2018-Jul-06 15:00N 25°48' W 080°15'0 0.0
2018-Jul-06 14:30N 25°48' W 080°15'0 0.0
2018-Jul-06 14:00N 25°48' W 080°15'0 0.0
2018-Jul-06 13:30N 25°48' W 080°15'0 0.0
2018-Jul-06 13:00N 25°48' W 080°15'0 0.0
2018-Jul-06 12:30N 25°48' W 080°15'0 0.0
2018-Jul-06 11:54N 25°48' W 080°15'0 0.0
2018-Jul-06 11:24N 25°48' W 080°15'0 0.0
2018-Jul-06 10:54N 25°48' W 080°15'0 0.0
2018-Jul-06 10:30N 25°48' W 080°15'0 0.0
2018-Jul-06 09:57N 25°48' W 080°15'0 0.0
2018-Jul-06 09:30N 25°48' W 080°15'0 0.0
2018-Jul-06 09:00N 25°48' W 080°15'0 0.0
2018-Jul-06 08:30N 25°48' W 080°15'0 0.0
2018-Jul-06 08:00N 25°48' W 080°15'0 0.0
2018-Jul-06 07:27N 25°48' W 080°15'0 0.0
2018-Jul-06 07:00N 25°48' W 080°15'0 0.0
2018-Jul-06 06:30N 25°48' W 080°15'0 0.0
2018-Jul-06 06:00N 25°48' W 080°15'0 0.0
2018-Jul-06 05:30N 25°48' W 080°15'0 0.0
2018-Jul-06 05:00N 25°48' W 080°15'0 0.0
2018-Jul-06 04:30N 25°48' W 080°15'0 0.0
2018-Jul-06 03:57N 25°48' W 080°15'0 0.0
2018-Jul-06 03:30N 25°48' W 080°15'0 0.0
2018-Jul-06 03:00N 25°48' W 080°15'0 0.0
2018-Jul-06 02:30N 25°48' W 080°15'0 0.0
2018-Jul-06 02:00N 25°48' W 080°15'0 0.0
2018-Jul-06 01:30N 25°48' W 080°15'0 0.0
2018-Jul-06 01:00N 25°48' W 080°15'0 0.0
2018-Jul-06 00:30N 25°48' W 080°15'0 0.0
2018-Jul-06 00:00N 25°48' W 080°15'0 0.0
2018-Jul-05 23:30N 25°48' W 080°15'0 0.0
2018-Jul-05 23:00N 25°48' W 080°15'0 0.0
2018-Jul-05 22:27N 25°48' W 080°15'0 0.0
2018-Jul-05 22:00N 25°48' W 080°15'0 0.0
2018-Jul-05 21:27N 25°48' W 080°15'0 0.0
2018-Jul-05 20:54N 25°48' W 080°15'0 0.0
2018-Jul-05 20:30N 25°48' W 080°15'0 0.0
2018-Jul-05 20:00N 25°48' W 080°15'0 0.0
2018-Jul-05 19:27N 25°48' W 080°15'0 0.0
2018-Jul-05 19:00N 25°48' W 080°15'0 0.0
2018-Jul-05 18:30N 25°48' W 080°15'0 0.0
2018-Jul-05 17:57N 25°48' W 080°15'0 0.0
2018-Jul-05 17:30N 25°48' W 080°15'0 0.0
2018-Jul-05 17:00N 25°48' W 080°15'0 0.0
2018-Jul-05 16:30N 25°48' W 080°15'0 0.0
2018-Jul-05 16:00N 25°48' W 080°15'0 0.0
2018-Jul-05 15:30N 25°48' W 080°15'0 0.0
2018-Jul-05 15:00N 25°48' W 080°15'0 0.0
2018-Jul-05 14:30N 25°48' W 080°15'0 0.0
2018-Jul-05 13:30N 25°48' W 080°15'0 0.0
2018-Jul-05 13:00N 25°48' W 080°15'0 0.0
2018-Jul-05 12:30N 25°48' W 080°15'0 0.0
2018-Jul-05 12:00N 25°48' W 080°15'0 0.0
2018-Jul-05 11:30N 25°48' W 080°15'0 0.0
2018-Jul-05 11:00N 25°48' W 080°15'0 0.0
2018-Jul-05 10:21N 25°48' W 080°15'0 0.0
2018-Jul-05 10:00N 25°48' W 080°15'0 0.0
2018-Jul-05 09:27N 25°48' W 080°15'0 0.0
2018-Jul-05 09:00N 25°48' W 080°15'0 0.0
2018-Jul-05 08:27N 25°48' W 080°15'0 0.0
2018-Jul-05 07:54N 25°48' W 080°15'0 0.0
2018-Jul-05 07:30N 25°48' W 080°15'0 0.0
2018-Jul-05 06:51N 25°48' W 080°15'0 0.0
2018-Jul-05 06:24N 25°48' W 080°15'0 0.0
2018-Jul-05 05:54N 25°48' W 080°15'0 0.0
2018-Jul-05 05:30N 25°48' W 080°15'0 0.0
2018-Jul-05 04:54N 25°48' W 080°15'0 0.0
2018-Jul-05 04:30N 25°48' W 080°15'0 0.0
2018-Jul-05 03:57N 25°48' W 080°15'0 0.0
2018-Jul-05 03:27N 25°48' W 080°15'0 0.0
2018-Jul-05 02:57N 25°48' W 080°15'0 0.0
2018-Jul-05 02:30N 25°48' W 080°15'0 0.0
2018-Jul-05 02:00N 25°48' W 080°15'0 0.0
2018-Jul-05 01:30N 25°48' W 080°15'0 0.0
2018-Jul-05 01:00N 25°48' W 080°15'0 0.0
2018-Jul-05 00:30N 25°48' W 080°15'0 0.0
2018-Jul-05 00:00N 25°48' W 080°15'0 0.0
2018-Jul-04 23:30N 25°48' W 080°15'0 0.0
2018-Jul-04 23:00N 25°48' W 080°15'0 0.0
2018-Jul-04 22:30N 25°48' W 080°15'0 0.0
2018-Jul-04 22:00N 25°48' W 080°15'0 0.0
2018-Jul-04 21:30N 25°48' W 080°15'0 0.0
2018-Jul-04 21:00N 25°48' W 080°15'0 0.0
2018-Jul-04 20:30N 25°48' W 080°15'0 0.0
2018-Jul-04 20:00N 25°48' W 080°15'0 0.0
2018-Jul-04 19:30N 25°48' W 080°15'0 0.0
2018-Jul-04 19:00N 25°48' W 080°15'0 0.0
2018-Jul-04 18:27N 25°48' W 080°15'0 0.0
2018-Jul-04 17:54N 25°48' W 080°15'0 0.0
2018-Jul-04 17:24N 25°48' W 080°15'0 0.0
2018-Jul-04 16:57N 25°48' W 080°15'0 0.0
2018-Jul-04 16:24N 25°48' W 080°15'0 0.0
2018-Jul-04 15:54N 25°48' W 080°15'0 0.0
2018-Jul-04 15:30N 25°48' W 080°15'0 0.0
2018-Jul-04 15:00N 25°48' W 080°15'0 0.0
2018-Jul-04 14:30N 25°48' W 080°15'0 0.0
2018-Jul-04 13:57N 25°48' W 080°15'0 0.0
2018-Jul-04 13:30N 25°48' W 080°15'0 0.0
2018-Jul-04 13:00N 25°48' W 080°15'0 0.0
2018-Jul-04 12:27N 25°48' W 080°15'0 0.0
2018-Jul-04 11:57N 25°48' W 080°15'0 0.0
2018-Jul-04 11:30N 25°48' W 080°15'0 0.0
2018-Jul-04 10:57N 25°48' W 080°15'0 0.0
2018-Jul-04 10:30N 25°48' W 080°15'0 0.0
2018-Jul-04 10:00N 25°48' W 080°15'0 0.0
2018-Jul-04 09:29N 25°48' W 080°15'0 0.0
2018-Jul-04 09:00N 25°48' W 080°15'0 0.0
2018-Jul-04 08:30N 25°48' W 080°15'0 0.0
2018-Jul-04 07:59N 25°48' W 080°15'0 0.0
2018-Jul-04 07:30N 25°48' W 080°15'0 0.0
2018-Jul-04 06:59N 25°48' W 080°15'0 0.0
2018-Jul-04 06:29N 25°48' W 080°15'0 0.0
2018-Jul-04 06:00N 25°48' W 080°15'0 0.0
2018-Jul-04 05:29N 25°48' W 080°15'0 0.0
2018-Jul-04 05:00N 25°48' W 080°15'0 0.0
2018-Jul-04 04:29N 25°48' W 080°15'0 0.0
2018-Jul-04 03:56N 25°48' W 080°15'0 0.0
2018-Jul-04 03:26N 25°48' W 080°15'0 0.0
2018-Jul-04 03:00N 25°48' W 080°15'0 0.0
2018-Jul-04 02:29N 25°48' W 080°15'0 0.0
2018-Jul-04 01:56N 25°48' W 080°15'0 0.0
2018-Jul-04 01:29N 25°48' W 080°15'0 0.0
2018-Jul-04 00:56N 25°48' W 080°15'0 0.0
2018-Jul-04 00:26N 25°48' W 080°15'0 0.0
2018-Jul-04 00:00N 25°48' W 080°15'0 0.0
2018-Jul-03 23:30N 25°48' W 080°15'0 0.0
2018-Jul-03 22:59N 25°48' W 080°15'0 0.0
2018-Jul-03 22:26N 25°48' W 080°15'0 0.0
2018-Jul-03 21:59N 25°48' W 080°15'0 0.0
2018-Jul-03 21:30N 25°48' W 080°15'0 0.0
2018-Jul-03 21:00N 25°48' W 080°15'0 0.0
2018-Jul-03 20:29N 25°48' W 080°15'0 0.0
2018-Jul-03 19:59N 25°48' W 080°15'0 0.0
2018-Jul-03 19:29N 25°48' W 080°15'0 0.0
2018-Jul-03 19:00N 25°48' W 080°15'0 0.0
2018-Jul-03 18:29N 25°48' W 080°15'0 0.0
2018-Jul-03 18:00N 25°48' W 080°15'0 0.0
2018-Jul-03 17:29N 25°48' W 080°15'0 0.0
2018-Jul-03 16:59N 25°48' W 080°15'0 0.0
2018-Jul-03 16:29N 25°48' W 080°15'0 0.0
2018-Jul-03 16:00N 25°48' W 080°15'0 0.0
2018-Jul-03 15:29N 25°48' W 080°15'0 0.0
2018-Jul-03 14:59N 25°48' W 080°15'0 0.0
2018-Jul-03 14:29N 25°48' W 080°15'0 0.0
2018-Jul-03 13:59N 25°48' W 080°15'0 0.0
2018-Jul-03 13:29N 25°48' W 080°15'0 0.0
2018-Jul-03 12:59N 25°48' W 080°15'0 0.0
2018-Jul-03 12:29N 25°48' W 080°15'0 0.0
2018-Jul-03 11:59N 25°48' W 080°15'0 0.0
2018-Jul-03 11:29N 25°48' W 080°15'0 0.0
2018-Jul-03 10:53N 25°48' W 080°15'0 0.0
2018-Jul-03 10:23N 25°48' W 080°15'0 0.0
2018-Jul-03 09:59N 25°48' W 080°15'0 0.0
2018-Jul-03 09:26N 25°48' W 080°15'0 0.0
2018-Jul-03 08:59N 25°48' W 080°15'0 0.0
2018-Jul-03 08:29N 25°48' W 080°15'0 0.0
2018-Jul-03 07:59N 25°48' W 080°15'0 0.0
2018-Jul-03 07:29N 25°48' W 080°15'0 0.0
2018-Jul-03 06:56N 25°48' W 080°15'0 0.0
2018-Jul-03 06:26N 25°48' W 080°15'0 0.0
2018-Jul-03 05:56N 25°48' W 080°15'0 0.0
2018-Jul-03 05:26N 25°48' W 080°15'0 0.0
2018-Jul-03 04:59N 25°48' W 080°15'0 0.0
2018-Jul-03 04:29N 25°48' W 080°15'0 0.0
2018-Jul-03 03:59N 25°48' W 080°15'0 0.0
2018-Jul-03 03:29N 25°48' W 080°15'0 0.0
2018-Jul-03 02:59N 25°48' W 080°15'0 0.0
2018-Jul-03 02:29N 25°48' W 080°15'0 0.0
2018-Jul-03 01:59N 25°48' W 080°15'0 0.0
2018-Jul-03 01:29N 25°48' W 080°15'0 0.0
2018-Jul-03 00:59N 25°48' W 080°15'0 0.0
2018-Jul-03 00:29N 25°48' W 080°15'0 0.0
2018-Jul-02 23:59N 25°48' W 080°15'0 0.0
2018-Jul-02 23:29N 25°48' W 080°15'0 0.0
2018-Jul-02 22:50N 25°48' W 080°15'0 0.0
2018-Jul-02 22:26N 25°48' W 080°15'0 0.0
2018-Jul-02 21:59N 25°48' W 080°15'0 0.0
2018-Jul-02 21:23N 25°48' W 080°15'0 0.0
2018-Jul-02 20:53N 25°48' W 080°15'0 0.0
2018-Jul-02 20:26N 25°48' W 080°15'0 0.0
2018-Jul-02 19:53N 25°48' W 080°15'0 0.0
2018-Jul-02 19:23N 25°48' W 080°15'0 0.0
2018-Jul-02 18:59N 25°48' W 080°15'0 0.0
2018-Jul-02 18:23N 25°48' W 080°15'0 0.0
2018-Jul-02 17:59N 25°48' W 080°15'0 0.0
2018-Jul-02 17:23N 25°48' W 080°15'0 0.0
2018-Jul-02 16:59N 25°48' W 080°15'0 0.0
2018-Jul-02 16:23N 25°48' W 080°15'0 0.0
2018-Jul-02 15:56N 25°48' W 080°15'0 0.0
2018-Jul-02 15:29N 25°48' W 080°15'0 0.0
2018-Jul-02 14:56N 25°48' W 080°15'0 0.0
2018-Jul-02 14:29N 25°48' W 080°15'0 0.0
2018-Jul-02 13:59N 25°48' W 080°15'0 0.0
2018-Jul-02 13:26N 25°48' W 080°15'0 0.0
2018-Jul-02 12:59N 25°48' W 080°15'0 0.0
2018-Jul-02 12:29N 25°48' W 080°15'0 0.0
2018-Jul-02 11:56N 25°48' W 080°15'0 0.0
2018-Jul-02 11:29N 25°48' W 080°15'0 0.0
2018-Jul-02 10:59N 25°48' W 080°15'0 0.0
2018-Jul-02 10:29N 25°48' W 080°15'0 0.0
2018-Jul-02 09:56N 25°48' W 080°15'0 0.0
2018-Jul-02 09:29N 25°48' W 080°15'0 0.0
2018-Jul-02 08:59N 25°48' W 080°15'0 0.0
2018-Jul-02 08:29N 25°48' W 080°15'0 0.0
2018-Jul-02 07:59N 25°48' W 080°15'0 0.0
2018-Jul-02 07:26N 25°48' W 080°15'0 0.0
2018-Jul-02 06:59N 25°48' W 080°15'0 0.0
2018-Jul-02 06:29N 25°48' W 080°15'0 0.0
2018-Jul-02 05:56N 25°48' W 080°15'0 0.0
2018-Jul-02 05:20N 25°48' W 080°15'0 0.0
2018-Jul-02 04:59N 25°48' W 080°15'0 0.0
2018-Jul-02 04:29N 25°48' W 080°15'0 0.0
2018-Jul-02 03:56N 25°48' W 080°15'0 0.0
2018-Jul-02 03:23N 25°48' W 080°15'0 0.0
2018-Jul-02 02:59N 25°48' W 080°15'0 0.0
2018-Jul-02 02:29N 25°48' W 080°15'0 0.0
2018-Jul-02 01:59N 25°48' W 080°15'0 0.0
2018-Jul-02 01:29N 25°48' W 080°15'0 0.0
2018-Jul-02 00:56N 25°48' W 080°15'0 0.0
2018-Jul-02 00:29N 25°48' W 080°15'0 0.0
2018-Jul-01 23:59N 25°48' W 080°15'0 0.0
2018-Jul-01 23:29N 25°48' W 080°15'0 0.0
2018-Jul-01 22:59N 25°48' W 080°15'0 0.0
2018-Jul-01 22:26N 25°48' W 080°15'0 0.0
2018-Jul-01 21:59N 25°48' W 080°15'0 0.0
2018-Jul-01 21:29N 25°48' W 080°15'0 0.0
2018-Jul-01 20:59N 25°48' W 080°15'0 0.0
2018-Jul-01 20:29N 25°48' W 080°15'0 0.0
2018-Jul-01 19:59N 25°48' W 080°15'0 0.0
2018-Jul-01 19:29N 25°48' W 080°15'0 0.0
2018-Jul-01 18:59N 25°48' W 080°15'  

Dump ship's entire track history